Jesup, GA

6:12 PM EST on February 27, 2015 (GMT -0500)
Jesup-Wayne County | Change Station
CLOSE
Current Station
Airport
Location: Jesup,
Elevation: 108 ft
Nearby Weather Stations
Active Advisory: Flood Warning

Elev 108 ft 31.55 °N, 81.88 °W | Updated 37 minutes ago

Clear
Clear
54 °F
Feels Like 54 °F
N
4
Wind Variable Wind from ESE

Today
High -- | Low -- °F
--% Chance of Precip.
Yesterday
High -- | Low -- °F
Precip. -- in
6:57 AM 6:23 PM
Waxing Gibbous, 72% visible
Pressure 30.33 in
Visibility 10.0 miles
Clouds Clear
Dew Point 41 °F
Humidity 62%
Rainfall 0.00 in
Snow Depth Not available.
UV 1 out of 12
Pollen 7.50 out of 12
Air Quality Not available.
Flu Activity Not available.
METAR KJES 272235Z AUTO 12003KT 10SM CLR 12/05 A3033 RMK AO2

More Conditions Fewer Conditions

Pressure 30.33 in
Visibility 10.0 miles
Clouds Clear
Dew Point 41 °F
Humidity 62%
Rainfall 0.00 in
Snow Depth Not available.
UV 1 out of 12
Pollen 7.50 out of 12
Air Quality Not available.
Flu Activity Not available.
METAR KJES 272235Z AUTO 12003KT 10SM CLR 12/05 A3033 RMK AO2

More Conditions Fewer Conditions

10-Day Weather Forecast

Almanac

Astronomy

Feb. 27, 2015 Rise Set
Actual Time
Civil Twilight
Nautical Twilight
Astronomical Twilight
Moon
Length of Visible Light
Length of Day
Tomorrow will be .
, % of the Moon is Illuminated

Today's Extremes

State Highs State Lows

Community

WunderPhotos

Upload Photos

1,800,874 photos uploaded!

WunderBlogs® & News

Nearby

Air Quality

  Air Quality AQ Index Pollutant
Not available.

Snow Depth

Station Depth Elevation

Earthquake Activity

City Distance Mag. Time & Date
Minimum magnitude displayed is 2.5.

Coastal Water Temperatures

Place Temperature

Nearby Weather Stations

Flood Warning
Statement as of 10:39 AM EST on February 27, 2015

The Flood Warning continues for
the Altamaha river at Baxley.
* From Saturday afternoon until further notice... or until the warning
is cancelled.
* At 9:45 am Friday the stage was 72.8 feet.
* Minor flooding is forecast.
* Flood stage is 74.5 feet.
* Forecast... rise above flood stage by tomorrow early afternoon and
continue to rise to near 75.8 feet by Wednesday morning. Additional
rises are possible thereafter.
* Impact... at 74.5 feet... minor flooding of Timber and agricultural
land can be expected.





               Fld observed 7am EST / 8am EDT forecast
location stg stg day time Sat sun Mon Tue Wed

Altamaha
Baxley 74 72.8 Fri 10 am 74.2 75.0 75.4 75.6 75.8




Lat... Lon 3194 8243 3188 8222 3176 8199 3183 8195 3193 8213 3200 8243